Weather reports worldwide

Advertisment
Brocken, Germany (10453): temperature & dewpoint: 14.08.2019 06:00:00 - 20.08.2019 06:00:00 (CEST)Brocken, Germany (10453): temperature 5cm: 14.08.2019 06:00:00 - 20.08.2019 06:00:00 (CEST)Brocken, Germany (10453): wind speed & gusts: 14.08.2019 06:00:00 - 20.08.2019 06:00:00 (CEST)Brocken, Germany (10453): wind direction: 14.08.2019 06:00:00 - 20.08.2019 06:00:00 (CEST)Brocken, Germany (10453): visibility: 14.08.2019 06:00:00 - 20.08.2019 06:00:00 (CEST)Brocken, Germany (10453): sunshine duration: 14.08.2019 06:00:00 - 20.08.2019 06:00:00 (CEST)
Date & Time tt [°C] td [°C] tt 5cm [°C] ff [km/h] ff [kn] fx [km/h] fx [kn] dd vv [km] sd [min]
20.08.2019 06:00:00 10,2 5,5 6,8 24 13 26 14 WSW 80 0
20.08.2019 05:00:00 9,5 5,6 7,0 24 13 32 17 WSW 80 0
20.08.2019 04:00:00 10,0 5,3 7,3 30 16 34 19 WSW 80 0
20.08.2019 03:00:00 10,6 5,1 8,4 30 16 36 20 SW 80 0
20.08.2019 02:00:00 10,9 4,8 8,6 32 18 36 19 SW 70 0
20.08.2019 01:00:00 11,0 4,8 8,3 31 17 34 18 SW 70 0
20.08.2019 00:00:00 11,2 4,7 8,2 30 16 31 17 SW 70 0
19.08.2019 23:00:00 11,3 4,5 7,9 27 14 29 15 SW 70 0
19.08.2019 22:00:00 10,4 5,2 7,6 24 13 25 13 WSW 70 0
19.08.2019 21:00:00 11,1 5,7 7,8 22 12 27 15 WSW 70 13
19.08.2019 20:00:00 11,7 5,6 9,6 23 13 34 19 WSW 82 47
19.08.2019 19:00:00 12,0 5,0 11,2 27 15 42 23 WSW 82 17
19.08.2019 18:00:00 12,7 5,4 15,6 28 15 42 23 WSW 82 27
19.08.2019 17:00:00 12,9 4,7 17,1 35 19 51 27 WSW 82 45
19.08.2019 16:00:00 12,3 4,7 16,9 37 20 54 29 WSW 82 35
19.08.2019 15:00:00 11,7 4,3 16,1 47 26 59 32 WSW 82 46
19.08.2019 14:00:00 11,5 4,8 16,4 41 22 58 31 WSW 82 48
19.08.2019 13:00:00 11,3 5,0 12,9 42 23 58 31 WSW 82 50
19.08.2019 12:00:00 9,9 4,9 13,3 42 23 64 34 WSW 82 57
19.08.2019 11:00:00 9,1 4,3 12,2 50 27 72 39 WSW 82 60
19.08.2019 10:00:00 8,0 4,7 9,1 61 33 83 45 WSW 60 60
19.08.2019 09:00:00 7,2 6,4 8,3 59 32 74 40 WSW 35 26
19.08.2019 08:00:00 7,5 7,4 8,0 53 29 67 36 WSW 0,1 1
19.08.2019 07:00:00 8,3 8,2 8,7 49 26 62 34 WSW - 0
19.08.2019 06:00:00 9,1 9,0 9,4 46 25 57 31 WSW - 0
19.08.2019 05:00:00 9,5 9,4 9,8 32 17 45 25 WSW - 0
19.08.2019 04:00:00 9,4 9,2 9,6 30 16 39 21 WSW 1,0 0
19.08.2019 03:00:00 9,3 9,2 9,5 23 12 36 20 W - 0
19.08.2019 02:00:00 9,3 9,2 9,4 27 15 45 24 W - 0
19.08.2019 01:00:00 9,6 9,6 9,8 35 19 50 27 W 0,1 0
19.08.2019 00:00:00 9,9 9,9 10,2 42 23 57 31 W 0,1 0
18.08.2019 23:00:00 10,7 10,6 11,0 47 25 68 37 WSW 0,1 0
18.08.2019 22:00:00 11,9 11,9 12,1 52 28 71 38 W 0,1 0
18.08.2019 21:00:00 12,6 12,6 12,9 51 28 75 41 WSW - 0
18.08.2019 20:00:00 13,0 13,0 13,2 57 31 118 64 WSW - 0
18.08.2019 19:00:00 14,5 14,4 14,8 48 26 82 44 WSW - 1
18.08.2019 18:00:00 14,5 14,4 15,0 63 34 94 51 SW 0,1 1
18.08.2019 17:00:00 13,9 13,7 14,4 60 32 103 56 WSW - 0
18.08.2019 16:00:00 15,4 14,2 15,7 78 42 111 60 SW 82 1
18.08.2019 15:00:00 14,4 14,3 14,9 73 40 96 52 SW - 0
18.08.2019 14:00:00 13,4 13,4 14,0 56 31 78 42 SSW - 0
18.08.2019 13:00:00 12,8 12,7 13,7 56 30 79 43 SW - 1
18.08.2019 12:00:00 12,2 12,1 14,4 47 26 59 32 SW - 2
18.08.2019 11:00:00 12,2 12,2 13,5 31 17 46 25 SSW - 0
18.08.2019 10:00:00 11,3 11,3 12,5 29 15 36 19 SSW - 2
18.08.2019 09:00:00 11,1 11,1 12,1 27 14 34 18 SSW - 0
18.08.2019 08:00:00 11,3 11,3 11,7 22 12 28 15 SSW - 0
18.08.2019 07:00:00 11,1 11,0 11,5 23 13 31 17 SW - 0
18.08.2019 06:00:00 11,7 11,7 11,9 23 13 31 17 SW - 0
18.08.2019 05:00:00 11,7 11,7 11,9 26 14 46 25 SW - 0
18.08.2019 04:00:00 11,8 11,8 11,9 38 21 51 28 SW - 0
18.08.2019 03:00:00 11,6 11,5 11,8 47 25 56 30 SW - 0
18.08.2019 02:00:00 11,5 11,4 11,7 42 23 61 33 SW - 0
18.08.2019 01:00:00 11,5 11,4 11,8 44 24 63 34 SW - 0
18.08.2019 00:00:00 11,6 11,5 11,8 55 30 69 37 SW - 0
17.08.2019 23:00:00 11,8 11,7 12,0 55 30 69 37 SW - 0
17.08.2019 22:00:00 11,9 11,7 12,1 51 28 71 38 SSW 0,1 0
17.08.2019 21:00:00 11,8 11,6 12,1 57 31 72 39 SW 10 0
17.08.2019 20:00:00 11,7 11,3 12,1 54 29 67 36 SW 60 0
17.08.2019 19:00:00 11,4 10,7 12,2 54 29 67 36 SW 80 0
17.08.2019 18:00:00 12,2 10,9 13,4 41 22 55 30 SW 50 6
17.08.2019 17:00:00 12,8 10,5 15,3 41 22 63 34 SSW 60 16
17.08.2019 16:00:00 13,2 9,5 15,7 52 28 65 35 SW 80 29
17.08.2019 15:00:00 14,3 8,8 18,0 50 27 70 38 SW 82 34
17.08.2019 14:00:00 13,6 9,6 16,1 55 30 85 46 SSW 80 30
17.08.2019 13:00:00 13,5 9,1 18,3 61 33 89 48 SSW 80 28
17.08.2019 12:00:00 13,3 9,5 17,1 63 34 82 44 SW 80 56
17.08.2019 11:00:00 12,6 8,9 14,8 58 32 77 42 SSW 80 36
17.08.2019 10:00:00 12,3 8,7 13,6 58 32 79 43 SSW 70 12
17.08.2019 09:00:00 10,9 8,5 10,9 64 34 80 43 SSW 60 0
17.08.2019 08:00:00 10,3 8,4 9,9 66 36 82 44 SSW 50 0
17.08.2019 07:00:00 9,7 8,6 9,3 58 31 68 37 SSW 50 0
17.08.2019 06:00:00 9,5 8,7 9,3 54 29 66 36 SSW 20 0
17.08.2019 05:00:00 11,0 7,7 10,6 59 32 70 38 SW 60 0
17.08.2019 04:00:00 10,9 7,2 10,5 56 30 69 37 SSW 60 0
17.08.2019 03:00:00 10,7 6,9 10,1 50 27 61 33 SSW 60 0
17.08.2019 02:00:00 10,9 6,9 10,1 51 28 63 34 SW 70 0
17.08.2019 01:00:00 10,9 7,2 9,8 50 27 61 33 SW 70 0
17.08.2019 00:00:00 10,9 7,7 9,6 46 25 54 29 SSW 70 0
16.08.2019 23:00:00 10,9 7,7 9,2 44 24 52 28 SSW 60 0
16.08.2019 22:00:00 11,1 7,4 9,2 37 20 44 24 SSW 60 0
16.08.2019 21:00:00 11,3 7,3 9,7 34 19 39 21 SW 60 0
16.08.2019 20:00:00 11,6 7,1 10,5 26 14 35 19 SSW 80 21
16.08.2019 19:00:00 12,3 6,7 13,1 26 14 35 19 SW 80 58
16.08.2019 18:00:00 12,4 5,9 15,8 25 14 41 22 SW 80 46
16.08.2019 17:00:00 13,0 5,8 17,1 25 14 47 25 WSW 80 36
16.08.2019 16:00:00 12,3 6,7 14,9 27 15 44 24 W 70 21
16.08.2019 15:00:00 11,6 5,5 14,5 33 18 51 27 WSW 70 33
16.08.2019 14:00:00 10,7 6,0 17,3 31 17 48 26 WSW 50 40
16.08.2019 13:00:00 10,3 6,5 12,6 31 17 53 29 W 40 23
16.08.2019 12:00:00 9,1 5,0 13,5 34 18 54 29 WSW 35 45
16.08.2019 11:00:00 7,8 6,5 9,9 35 19 54 29 W 30 20
16.08.2019 10:00:00 7,6 6,7 10,0 47 26 59 32 W 0,4 7
16.08.2019 09:00:00 7,3 7,1 8,4 46 25 61 33 W 0,1 1
16.08.2019 08:00:00 7,1 6,9 7,9 45 24 56 31 W 0,2 1
16.08.2019 07:00:00 7,4 7,2 7,8 38 21 51 28 W - 0
16.08.2019 06:00:00 8,0 7,9 8,2 37 20 54 29 W - 0
16.08.2019 05:00:00 8,1 7,9 8,4 38 20 57 31 W - 0
16.08.2019 04:00:00 8,6 8,4 8,8 41 22 55 30 W - 0
16.08.2019 03:00:00 8,7 8,5 8,9 40 22 54 29 W - 0
16.08.2019 02:00:00 9,2 9,1 9,5 35 19 54 29 W - 0
16.08.2019 01:00:00 9,3 9,2 9,6 37 20 56 30 W - 0
16.08.2019 00:00:00 9,6 9,5 9,8 39 21 53 28 W - 0
15.08.2019 23:00:00 9,8 9,7 10,0 36 19 54 29 W - 0
15.08.2019 22:00:00 9,5 9,4 9,7 44 24 57 31 W - 0
15.08.2019 21:00:00 9,8 9,8 10,0 35 19 45 24 W - 0
15.08.2019 20:00:00 10,0 10,0 10,3 36 19 57 31 W - 0
15.08.2019 19:00:00 10,7 10,7 11,0 38 21 67 36 W - 0
15.08.2019 18:00:00 10,8 10,7 11,5 38 21 56 30 SW - 1
15.08.2019 17:00:00 10,8 10,8 12,3 41 22 67 36 SW - 1
15.08.2019 16:00:00 10,2 10,1 11,0 49 26 68 37 SW - 1
15.08.2019 15:00:00 10,0 9,9 10,7 55 30 67 36 SW - 0
15.08.2019 14:00:00 9,7 9,6 10,5 55 30 70 38 SSW - 0
15.08.2019 13:00:00 9,1 9,1 9,8 55 30 77 42 SSW - 0
15.08.2019 12:00:00 8,6 8,5 9,3 62 33 81 44 SSW - 0
15.08.2019 11:00:00 8,4 8,2 9,5 73 39 87 47 SSW - 0
15.08.2019 10:00:00 8,2 8,0 9,0 71 39 84 45 SSW - 0
15.08.2019 09:00:00 8,0 7,9 8,6 65 35 81 44 SSW - 6
15.08.2019 08:00:00 7,9 7,8 8,3 68 37 81 44 SSW - 0
15.08.2019 07:00:00 7,4 6,9 7,5 61 33 72 39 SSW 23 0
15.08.2019 06:00:00 7,3 6,4 7,2 48 26 63 34 SSW 20 0
15.08.2019 05:00:00 8,3 4,2 6,8 50 27 61 33 SSW 28 0
15.08.2019 04:00:00 9,3 3,0 8,8 50 27 61 33 S 50 0
15.08.2019 03:00:00 9,6 2,4 8,8 42 23 55 30 SSW 60 0
15.08.2019 02:00:00 9,5 1,7 8,7 41 22 49 26 SSW 80 0
15.08.2019 01:00:00 9,8 1,1 8,4 39 21 47 26 SSW 80 0
15.08.2019 00:00:00 9,6 1,2 8,3 39 21 45 25 SSW 82 0
14.08.2019 23:00:00 9,5 2,4 7,0 34 18 37 20 SSW 80 0
14.08.2019 22:00:00 9,7 3,1 6,8 28 15 31 17 SSW 82 0
14.08.2019 21:00:00 9,8 3,1 6,7 22 12 24 13 SSW 82 26
14.08.2019 20:00:00 10,1 3,4 8,0 19 10 32 17 SW 82 10
14.08.2019 19:00:00 11,1 2,7 12,5 25 14 38 20 WSW 82 49
14.08.2019 18:00:00 11,1 3,1 14,8 21 12 42 23 WSW 82 22
14.08.2019 17:00:00 10,4 4,2 12,5 27 15 41 22 WSW 82 36
14.08.2019 16:00:00 10,7 4,0 15,2 27 15 40 22 SSW 82 38
14.08.2019 15:00:00 9,9 3,7 13,0 29 16 41 22 WSW 82 27
14.08.2019 14:00:00 9,5 3,3 15,8 28 15 42 23 WSW 80 34
14.08.2019 13:00:00 9,2 3,4 14,1 26 14 40 22 WSW 70 18
14.08.2019 12:00:00 9,9 4,0 11,4 28 15 41 22 W 60 39
14.08.2019 11:00:00 8,4 4,2 10,4 26 14 37 20 W 40 34
14.08.2019 10:00:00 7,6 5,2 10,1 21 11 36 20 W 25 24
14.08.2019 09:00:00 5,8 5,2 7,8 31 17 40 22 W 0,1 7
14.08.2019 08:00:00 5,2 4,9 6,0 31 17 42 23 W 0,1 0
14.08.2019 07:00:00 5,3 5,1 5,8 34 19 50 27 W 0,1 0
14.08.2019 06:00:00 5,1 4,9 5,4 40 21 51 28 WSW 0,1 0

tt = temperature
td = dewpoint
tt 5cm = temperature 5cm
ff = wind speed
fx = gusts
dd = wind direction
vv = visibility
sd = sunshine duration

Next stations